KBPI

Miley Memorial Field Airport

Big Piney, Wyoming, USA
METAR KBPI 210653Z AUTO 09003KT 10SM FEW120 07/04 A3008 RMK AO2 SLP120 T00720044 401890011 $
Observed Flight Rules
May-21 @ 06:53 UTC (19 minutes ago) Visual Flight Rules
Wind Visibility Clouds
90° at 3 knots 10 miles
  • Few at 12,000' AGL
Temperatures Readings
Current 7°C / 45°F
Dewpoint 4°C / 39°F
Humidity 81%
Altimeter 30.08" Hg
Pressure 1012 hPa
Elevation 2117
METAR KBPI 210653Z AUTO 09003KT 10SM FEW120 07/04 A3008 RMK AO2 SLP120 T00720044 401890011 $
Observed Flight Rules
May-21 @ 06:53 UTC
(19 minutes ago)
VFR
Wind Visibility
90° at 3 knots 10 miles
Clouds
  • Few at 12,000' AGL
Temperature Dewpoint
7°C / 45°F 4°C / 39°F
Humidity Altimeter Pressure
81% 30.08" Hg 1012 hPa